Time;durP1;ratioP1;P1;durP2;ratioP2;P2;SDS_P1;SDS_P2;PMS_P1;PMS_P2;Temp;Humidity;BMP_temperature;BMP_pressure;BME280_temperature;BME280_humidity;BME280_pressure;Samples;Min_cycle;Max_cycle;Signal;HPM_P1;HPM_P2
2024/02/16 00:00:11;;;;;;;0.00;0.00;;;26.00;42.30;;;;;;5006441;28;20224;-46
2024/02/16 00:02:42;;;;;;;0.00;0.00;;;26.10;42.30;;;;;;4999303;28;20327;-43
2024/02/16 00:05:15;;;;;;;0.00;0.00;;;26.10;42.30;;;;;;4994527;28;20196;-40
2024/02/16 00:07:45;;;;;;;0.00;0.00;;;26.10;42.30;;;;;;5009533;28;20661;-42
2024/02/16 00:10:18;;;;;;;0.00;0.00;;;26.10;42.30;;;;;;5009082;28;20237;-43
2024/02/16 00:12:49;;;;;;;0.00;0.00;;;26.20;42.50;;;;;;5013047;28;20287;-44
2024/02/16 00:15:20;;;;;;;0.00;0.00;;;26.10;42.50;;;;;;5029000;28;20207;-47
2024/02/16 00:17:50;;;;;;;0.00;0.00;;;26.20;42.50;;;;;;5020489;28;20276;-45
2024/02/16 00:20:24;;;;;;;0.00;0.00;;;26.20;42.60;;;;;;5009531;28;20736;-47
2024/02/16 00:22:55;;;;;;;0.00;0.00;;;26.20;42.50;;;;;;5008315;28;20201;-46
2024/02/16 00:25:26;;;;;;;0.00;0.00;;;26.20;42.40;;;;;;5007806;28;20231;-42
2024/02/16 00:27:56;;;;;;;0.00;0.00;;;26.20;42.40;;;;;;5026765;28;20209;-44
2024/02/16 00:30:27;;;;;;;0.00;0.00;;;26.20;42.40;;;;;;5029333;28;20231;-46
2024/02/16 00:32:58;;;;;;;0.00;0.00;;;26.20;42.40;;;;;;5029022;28;20579;-41
2024/02/16 00:35:33;;;;;;;0.00;0.00;;;26.20;42.40;;;;;;5028057;28;20205;-45
2024/02/16 00:38:03;;;;;;;0.00;0.00;;;26.20;42.50;;;;;;5028931;28;20350;-40
2024/02/16 00:40:34;;;;;;;0.00;0.00;;;26.20;42.50;;;;;;5019451;28;20580;-43
2024/02/16 00:43:05;;;;;;;0.00;0.00;;;26.20;42.60;;;;;;5009513;28;20205;-42
2024/02/16 00:45:37;;;;;;;0.00;0.00;;;26.20;42.50;;;;;;5008882;28;20212;-46
2024/02/16 00:48:08;;;;;;;0.00;0.00;;;26.20;42.70;;;;;;5007825;28;20216;-39
2024/02/16 00:50:42;;;;;;;0.00;0.00;;;26.20;42.50;;;;;;5007859;28;20203;-39
2024/02/16 00:53:13;;;;;;;0.00;0.00;;;26.20;42.60;;;;;;5004871;28;20253;-42
2024/02/16 00:55:46;;;;;;;0.00;0.00;;;26.20;42.70;;;;;;5007653;28;20201;-44
2024/02/16 00:58:16;;;;;;;0.00;0.00;;;26.20;42.70;;;;;;5007639;28;20231;-47
2024/02/16 01:00:47;;;;;;;0.00;0.00;;;26.30;42.70;;;;;;5008324;28;20211;-44
2024/02/16 01:03:18;;;;;;;0.00;0.00;;;26.30;42.70;;;;;;5007915;28;20216;-40
2024/02/16 01:05:51;;;;;;;0.00;0.00;;;26.30;42.60;;;;;;5008698;28;20208;-39
2024/02/16 01:08:23;;;;;;;0.00;0.00;;;26.30;42.60;;;;;;5026312;28;20687;-42
2024/02/16 01:10:54;;;;;;;0.00;0.00;;;26.30;42.60;;;;;;5017719;28;20204;-42
2024/02/16 01:13:24;;;;;;;0.00;0.00;;;26.30;42.70;;;;;;5007910;28;20280;-39
2024/02/16 01:15:55;;;;;;;0.00;0.00;;;26.30;42.70;;;;;;5006992;28;20216;-41
2024/02/16 01:18:26;;;;;;;0.00;0.00;;;26.30;42.70;;;;;;5007626;28;20433;-45
2024/02/16 01:20:58;;;;;;;0.00;0.00;;;26.30;42.70;;;;;;5013048;28;20248;-49
2024/02/16 01:23:29;;;;;;;0.00;0.00;;;26.30;42.70;;;;;;4992016;28;20235;-40
2024/02/16 01:26:01;;;;;;;0.00;0.00;;;26.30;42.80;;;;;;4987739;28;20201;-40
2024/02/16 01:28:32;;;;;;;0.00;0.00;;;26.30;42.70;;;;;;5004151;28;20229;-45
2024/02/16 01:31:02;;;;;;;0.00;0.00;;;26.30;42.70;;;;;;5007766;28;20205;-40
2024/02/16 01:33:34;;;;;;;0.00;0.00;;;26.30;43.30;;;;;;5015643;28;20649;-42
2024/02/16 01:36:07;;;;;;;0.00;0.00;;;26.30;42.70;;;;;;5027165;28;20196;-40
2024/02/16 01:38:38;;;;;;;0.00;0.00;;;26.30;42.70;;;;;;5026838;28;20751;-48
2024/02/16 01:41:10;;;;;;;0.00;0.00;;;26.30;42.70;;;;;;5010660;28;20232;-40
2024/02/16 01:43:41;;;;;;;0.00;0.00;;;26.30;42.70;;;;;;5004402;28;20198;-41
2024/02/16 01:46:12;;;;;;;0.00;0.00;;;26.30;42.80;;;;;;5007161;28;20225;-42
2024/02/16 01:48:43;;;;;;;0.00;0.00;;;26.30;42.80;;;;;;5021741;28;20521;-41
2024/02/16 01:51:16;;;;;;;0.00;0.00;;;26.30;42.70;;;;;;5026832;28;20240;-39
2024/02/16 01:53:47;;;;;;;0.00;0.00;;;26.30;42.80;;;;;;5023463;28;20207;-46
2024/02/16 01:56:20;;;;;;;0.00;0.00;;;26.40;42.90;;;;;;5007196;28;20196;-47
2024/02/16 01:58:51;;;;;;;0.00;0.00;;;26.40;42.80;;;;;;5006509;28;20231;-49
2024/02/16 02:01:22;;;;;;;0.00;0.00;;;26.40;42.90;;;;;;5010674;28;20209;-47
2024/02/16 02:03:53;;;;;;;0.00;0.00;;;26.40;42.90;;;;;;5007653;28;20287;-41
2024/02/16 02:06:26;;;;;;;0.00;0.00;;;26.40;42.90;;;;;;5006832;28;20225;-40
2024/02/16 02:08:56;;;;;;;0.00;0.00;;;26.40;42.90;;;;;;5009482;28;20517;-44
2024/02/16 02:11:27;;;;;;;0.00;0.00;;;26.40;42.90;;;;;;5011005;28;20478;-46
2024/02/16 02:13:58;;;;;;;0.00;0.00;;;26.40;42.90;;;;;;5030282;28;20204;-44
2024/02/16 02:16:28;;;;;;;0.00;0.00;;;26.40;42.90;;;;;;5013305;28;20223;-42
2024/02/16 02:18:59;;;;;;;0.00;0.00;;;26.40;42.90;;;;;;5010892;28;20586;-39
2024/02/16 02:21:32;;;;;;;0.00;0.00;;;26.50;43.00;;;;;;5011660;28;20201;-44
2024/02/16 02:24:05;;;;;;;0.00;0.00;;;26.50;43.00;;;;;;5010496;28;20200;-40
2024/02/16 02:26:35;;;;;;;0.00;0.00;;;26.50;43.00;;;;;;5018061;28;20649;-43
2024/02/16 02:29:09;;;;;;;0.00;0.00;;;26.50;42.90;;;;;;5031252;28;20220;-39
2024/02/16 02:31:40;;;;;;;0.00;0.00;;;26.50;43.00;;;;;;5030141;28;20207;-42
2024/02/16 02:34:11;;;;;;;0.00;0.00;;;26.50;43.00;;;;;;5030107;28;20207;-40
2024/02/16 02:36:42;;;;;;;0.00;0.00;;;26.50;43.00;;;;;;5030810;28;20199;-39
2024/02/16 02:39:15;;;;;;;0.00;0.00;;;26.50;43.00;;;;;;5029316;28;20277;-41
2024/02/16 02:41:46;;;;;;;0.00;0.00;;;26.50;43.00;;;;;;5012904;28;20212;-42
2024/02/16 02:44:16;;;;;;;0.00;0.00;;;26.50;43.10;;;;;;5010391;28;20540;-44
2024/02/16 02:46:48;;;;;;;0.00;0.00;;;26.50;43.00;;;;;;5010405;28;20233;-39
2024/02/16 02:49:19;;;;;;;0.00;0.00;;;26.50;43.00;;;;;;5003090;28;20224;-43
2024/02/16 02:51:49;;;;;;;0.00;0.00;;;26.50;43.00;;;;;;5011987;28;20680;-46
2024/02/16 02:54:22;;;;;;;0.00;0.00;;;26.50;43.10;;;;;;5022347;28;20197;-46
2024/02/16 02:56:53;;;;;;;0.00;0.00;;;26.50;43.10;;;;;;5007214;28;20211;-41
2024/02/16 02:59:24;;;;;;;0.00;0.00;;;26.50;43.00;;;;;;5010237;28;20217;-42
2024/02/16 03:01:56;;;;;;;0.00;0.00;;;26.50;43.10;;;;;;5010075;28;20255;-42
2024/02/16 03:04:27;;;;;;;0.00;0.00;;;26.60;43.20;;;;;;5014522;28;20656;-42
2024/02/16 03:06:57;;;;;;;0.00;0.00;;;26.50;43.10;;;;;;5029464;28;20236;-44
2024/02/16 03:09:30;;;;;;;0.00;0.00;;;26.60;43.10;;;;;;5029979;28;20231;-42
2024/02/16 03:12:01;;;;;;;0.00;0.00;;;26.60;43.80;;;;;;4991927;28;20205;-46
2024/02/16 03:14:32;;;;;;;0.00;0.00;;;26.60;43.10;;;;;;4999315;28;20204;-50
2024/02/16 03:17:03;;;;;;;0.00;0.00;;;26.60;43.10;;;;;;5010509;28;20204;-40
2024/02/16 03:19:34;;;;;;;0.00;0.00;;;26.60;43.20;;;;;;5025448;28;20220;-47
2024/02/16 03:22:05;;;;;;;0.00;0.00;;;26.60;43.20;;;;;;5029710;28;20266;-46
2024/02/16 03:24:37;;;;;;;0.00;0.00;;;26.60;43.10;;;;;;5029930;28;20577;-48
2024/02/16 03:27:10;;;;;;;0.00;0.00;;;26.60;43.20;;;;;;5029517;28;20315;-48
2024/02/16 03:29:41;;;;;;;0.00;0.00;;;26.60;43.20;;;;;;5029907;28;20220;-43
2024/02/16 03:32:12;;;;;;;0.00;0.00;;;26.60;43.10;;;;;;5029463;28;20671;-43
2024/02/16 03:34:42;;;;;;;0.00;0.00;;;26.70;43.20;;;;;;5029483;28;20196;-44
2024/02/16 03:37:14;;;;;;;0.00;0.00;;;26.70;43.20;;;;;;5027538;28;20203;-43
2024/02/16 03:39:46;;;;;;;0.00;0.00;;;26.70;43.20;;;;;;5028073;28;20216;-40
2024/02/16 03:42:19;;;;;;;0.00;0.00;;;26.70;43.20;;;;;;5005912;28;20280;-42
2024/02/16 03:44:51;;;;;;;0.00;0.00;;;26.70;43.20;;;;;;4995786;28;20303;-46
2024/02/16 03:47:21;;;;;;;0.00;0.00;;;26.70;43.20;;;;;;5029406;28;20224;-45
2024/02/16 03:49:54;;;;;;;0.00;0.00;;;26.70;43.10;;;;;;5028788;28;20223;-44
2024/02/16 03:52:25;;;;;;;0.00;0.00;;;26.70;43.10;;;;;;5028418;28;20633;-44
2024/02/16 03:54:57;;;;;;;0.00;0.00;;;26.70;43.20;;;;;;5015073;28;20669;-39
2024/02/16 03:57:28;;;;;;;0.00;0.00;;;26.80;43.20;;;;;;5009884;28;20568;-43
2024/02/16 03:59:59;;;;;;;0.00;0.00;;;26.80;43.20;;;;;;5013131;28;20213;-49
2024/02/16 04:02:30;;;;;;;0.00;0.00;;;26.80;43.20;;;;;;5009351;28;20296;-41
2024/02/16 04:05:03;;;;;;;0.00;0.00;;;26.80;43.10;;;;;;5009289;28;20197;-44
2024/02/16 04:07:33;;;;;;;0.00;0.00;;;26.80;43.20;;;;;;5009633;28;20232;-41
2024/02/16 04:10:06;;;;;;;0.00;0.00;;;26.80;43.20;;;;;;5009103;28;20224;-41
2024/02/16 04:12:38;;;;;;;0.00;0.00;;;26.80;43.20;;;;;;5016551;28;20606;-44
2024/02/16 04:15:09;;;;;;;0.00;0.00;;;26.80;43.10;;;;;;5028784;28;20221;-43
2024/02/16 04:17:39;;;;;;;0.00;0.00;;;26.90;43.20;;;;;;4991075;28;20198;-40
2024/02/16 04:20:11;;;;;;;0.00;0.00;;;26.90;43.20;;;;;;4989304;28;20221;-42
2024/02/16 04:22:42;;;;;;;0.00;0.00;;;26.90;43.10;;;;;;4989594;28;20197;-46
2024/02/16 04:25:15;;;;;;;0.00;0.00;;;26.90;43.10;;;;;;5007441;28;20207;-45
2024/02/16 04:27:45;;;;;;;0.00;0.00;;;26.90;43.10;;;;;;5027993;28;20274;-44
2024/02/16 04:30:17;;;;;;;0.00;0.00;;;26.90;43.10;;;;;;4990261;28;20256;-47
2024/02/16 04:32:48;;;;;;;0.00;0.00;;;26.90;43.10;;;;;;4988461;28;20209;-47
2024/02/16 04:35:19;;;;;;;0.00;0.00;;;26.90;43.10;;;;;;4989249;28;20210;-50
2024/02/16 04:37:49;;;;;;;0.00;0.00;;;26.90;43.10;;;;;;4997555;28;20196;-45
2024/02/16 04:40:22;;;;;;;0.00;0.00;;;26.90;43.10;;;;;;5022107;28;20232;-50
2024/02/16 04:42:53;;;;;;;0.00;0.00;;;26.90;43.00;;;;;;5001782;28;20202;-42
2024/02/16 04:45:23;;;;;;;0.00;0.00;;;26.90;43.00;;;;;;5001329;28;20216;-42
2024/02/16 04:47:54;;;;;;;0.00;0.00;;;26.90;43.00;;;;;;5003671;28;20244;-43
2024/02/16 04:50:25;;;;;;;0.00;0.00;;;26.90;43.00;;;;;;5008471;28;20661;-43
2024/02/16 04:52:56;;;;;;;0.00;0.00;;;27.00;42.90;;;;;;5021418;28;20219;-51
2024/02/16 04:55:28;;;;;;;0.00;0.00;;;26.90;42.80;;;;;;5004700;28;20198;-48
2024/02/16 04:57:59;;;;;;;0.00;0.00;;;26.90;42.80;;;;;;5009052;28;20622;-47
2024/02/16 05:00:30;;;;;;;0.00;0.00;;;26.90;42.80;;;;;;5008623;28;20580;-42
2024/02/16 05:03:00;;;;;;;0.00;0.00;;;26.90;42.80;;;;;;5007536;28;20232;-49
2024/02/16 05:05:31;;;;;;;0.00;0.00;;;26.90;42.80;;;;;;5004757;28;20197;-42
2024/02/16 05:08:04;;;;;;;0.00;0.00;;;26.80;42.70;;;;;;5008289;28;20708;-46
2024/02/16 05:10:36;;;;;;;0.00;0.00;;;26.90;42.80;;;;;;5007554;28;20220;-44
2024/02/16 05:13:07;;;;;;;0.00;0.00;;;26.80;42.70;;;;;;5008168;28;20274;-46
2024/02/16 05:15:38;;;;;;;0.00;0.00;;;26.80;42.70;;;;;;5008133;28;20196;-48
2024/02/16 05:18:12;;;;;;;0.00;0.00;;;26.80;42.70;;;;;;5008473;28;20700;-43
2024/02/16 05:20:43;;;;;;;0.00;0.00;;;26.80;42.70;;;;;;5007877;28;20283;-50
2024/02/16 05:23:14;;;;;;;0.00;0.00;;;26.80;42.80;;;;;;5008119;28;20207;-48
2024/02/16 05:25:47;;;;;;;0.00;0.00;;;26.70;42.80;;;;;;5008247;28;20204;-45
2024/02/16 05:28:18;;;;;;;0.00;0.00;;;26.70;42.80;;;;;;5007077;28;20228;-46
2024/02/16 05:30:49;;;;;;;0.00;0.00;;;26.70;42.70;;;;;;5011043;28;20210;-44
2024/02/16 05:33:19;;;;;;;0.00;0.00;;;26.70;42.80;;;;;;5011467;28;20200;-46
2024/02/16 05:35:55;;;;;;;0.00;0.00;;;26.70;42.80;;;;;;5010779;28;20196;-44
2024/02/16 05:38:40;;;;;;;0.00;0.00;;;26.70;42.80;;;;;;5009712;28;20278;-47
2024/02/16 05:41:13;;;;;;;0.00;0.00;;;26.70;42.80;;;;;;5011190;28;20250;-48
2024/02/16 05:43:45;;;;;;;0.00;0.00;;;26.70;42.90;;;;;;5013711;28;20201;-47
2024/02/16 05:46:17;;;;;;;0.00;0.00;;;26.70;42.90;;;;;;5015512;28;20193;-45
2024/02/16 05:48:48;;;;;;;0.00;0.00;;;26.70;42.90;;;;;;5014815;28;20240;-44
2024/02/16 05:51:19;;;;;;;0.00;0.00;;;26.70;42.90;;;;;;4998122;28;20193;-44
2024/02/16 05:53:51;;;;;;;0.00;0.00;;;26.70;43.00;;;;;;4996222;28;20193;-41
2024/02/16 05:56:23;;;;;;;0.00;0.00;;;26.70;42.90;;;;;;5014663;28;20680;-46
2024/02/16 05:58:54;;;;;;;0.00;0.00;;;26.70;43.60;;;;;;5015099;28;20220;-44
2024/02/16 06:01:25;;;;;;;0.00;0.00;;;26.70;43.00;;;;;;5015247;28;20566;-46
2024/02/16 06:03:57;;;;;;;0.00;0.00;;;26.70;42.90;;;;;;4996082;28;20577;-41
2024/02/16 06:06:28;;;;;;;0.00;0.00;;;26.70;42.90;;;;;;4995352;28;20623;-41
2024/02/16 06:08:58;;;;;;;0.00;0.00;;;26.70;43.00;;;;;;4995170;28;20580;-45
2024/02/16 06:11:31;;;;;;;0.00;0.00;;;26.70;43.00;;;;;;5010949;28;20200;-47
2024/02/16 06:14:02;;;;;;;0.00;0.00;;;26.70;43.00;;;;;;5014578;28;20197;-50
2024/02/16 06:16:33;;;;;;;0.00;0.00;;;26.60;43.00;;;;;;4996699;28;20197;-45
2024/02/16 06:19:06;;;;;;;0.00;0.00;;;26.60;43.00;;;;;;4994514;28;20221;-49
2024/02/16 06:21:36;;;;;;;0.00;0.00;;;26.60;43.00;;;;;;5011899;28;20201;-45
2024/02/16 06:24:08;;;;;;;0.00;0.00;;;26.60;43.00;;;;;;5014789;28;20207;-49
2024/02/16 06:26:40;;;;;;;0.00;0.00;;;26.60;43.00;;;;;;5013707;28;20650;-46
2024/02/16 06:29:11;;;;;;;0.00;0.00;;;26.60;43.00;;;;;;5014350;28;20228;-44
2024/02/16 06:31:42;;;;;;;0.00;0.00;;;26.60;43.00;;;;;;5015033;28;20667;-44
2024/02/16 06:34:12;;;;;;;0.00;0.00;;;26.60;43.00;;;;;;5014713;28;20227;-47
2024/02/16 06:36:43;;;;;;;0.00;0.00;;;26.50;42.90;;;;;;5013766;28;20193;-41
2024/02/16 06:39:16;;;;;;;0.00;0.00;;;26.50;42.90;;;;;;5013765;28;20411;-45
2024/02/16 06:41:49;;;;;;;0.00;0.00;;;26.50;43.00;;;;;;5013715;28;20200;-46
2024/02/16 06:44:20;;;;;;;0.00;0.00;;;26.50;43.00;;;;;;5014170;28;20200;-49
2024/02/16 06:46:51;;;;;;;0.00;0.00;;;26.50;43.00;;;;;;5013579;28;20680;-46
2024/02/16 06:49:21;;;;;;;0.00;0.00;;;26.50;43.00;;;;;;5012960;28;20229;-48
2024/02/16 06:51:52;;;;;;;0.00;0.00;;;26.50;43.00;;;;;;5013730;28;20201;-45
2024/02/16 06:54:24;;;;;;;0.00;0.00;;;26.50;43.10;;;;;;5012141;28;20193;-47
2024/02/16 06:56:57;;;;;;;0.00;0.00;;;26.50;43.10;;;;;;5013471;28;20648;-49
2024/02/16 06:59:27;;;;;;;0.00;0.00;;;26.40;43.10;;;;;;5014250;28;20270;-49
2024/02/16 07:01:58;;;;;;;0.00;0.00;;;26.40;43.20;;;;;;5014573;28;20219;-44
2024/02/16 07:04:29;;;;;;;0.00;0.00;;;26.40;43.20;;;;;;5014146;28;20201;-50
2024/02/16 07:06:59;;;;;;;0.00;0.00;;;26.40;43.20;;;;;;5013665;28;20208;-49
2024/02/16 07:09:30;;;;;;;0.00;0.00;;;26.40;43.20;;;;;;5013425;28;20236;-48
2024/02/16 07:12:03;;;;;;;0.00;0.00;;;26.40;43.30;;;;;;4995377;28;20588;-47
2024/02/16 07:14:33;;;;;;;0.00;0.00;;;26.30;43.20;;;;;;4993610;28;20676;-50
2024/02/16 07:17:09;;;;;;;0.00;0.00;;;26.30;43.20;;;;;;4994181;28;20193;-43
2024/02/16 07:19:40;;;;;;;0.00;0.00;;;26.30;43.30;;;;;;4993956;28;20225;-49
2024/02/16 07:22:12;;;;;;;0.00;0.00;;;26.30;43.30;;;;;;4993762;28;20205;-48
2024/02/16 07:24:43;;;;;;;0.00;0.00;;;26.30;43.30;;;;;;4993780;28;20337;-46
2024/02/16 07:27:15;;;;;;;0.00;0.00;;;26.20;43.30;;;;;;4993054;28;20201;-45
2024/02/16 07:29:46;;;;;;;0.00;0.00;;;26.20;43.30;;;;;;4994022;28;20218;-50
2024/02/16 07:32:18;;;;;;;0.00;0.00;;;26.20;43.30;;;;;;4993466;28;20205;-48
2024/02/16 07:34:51;;;;;;;0.00;0.00;;;26.20;43.30;;;;;;4993535;28;20597;-50
2024/02/16 07:37:21;;;;;;;0.00;0.00;;;26.20;43.30;;;;;;4993449;28;20197;-48
2024/02/16 07:39:52;;;;;;;0.00;0.00;;;26.20;43.30;;;;;;4995779;28;20591;-44
2024/02/16 07:42:25;;;;;;;0.00;0.00;;;26.10;43.30;;;;;;5012510;28;20224;-45
2024/02/16 07:44:57;;;;;;;0.00;0.00;;;26.10;43.30;;;;;;5009820;28;20646;-50
2024/02/16 07:47:28;;;;;;;0.00;0.00;;;26.10;43.40;;;;;;5013118;28;20199;-54
2024/02/16 07:49:59;;;;;;;0.00;0.00;;;26.10;43.40;;;;;;5012776;28;20228;-47
2024/02/16 07:52:29;;;;;;;0.00;0.00;;;26.10;43.50;;;;;;5013403;28;20197;-49
2024/02/16 07:55:00;;;;;;;0.00;0.00;;;26.00;43.40;;;;;;5005328;28;20338;-45
2024/02/16 07:57:33;;;;;;;0.00;0.00;;;26.00;43.40;;;;;;4993248;28;20209;-47
2024/02/16 08:00:03;;;;;;;0.00;0.00;;;26.00;43.50;;;;;;5011873;28;20216;-45
2024/02/16 08:02:34;;;;;;;0.00;0.00;;;26.00;43.50;;;;;;5012785;28;20684;-48
2024/02/16 08:05:06;;;;;;;0.00;0.00;;;26.00;43.50;;;;;;5013003;28;20196;-49
2024/02/16 08:07:36;;;;;;;0.00;0.00;;;26.00;43.50;;;;;;5012956;28;20200;-44
2024/02/16 08:10:08;;;;;;;0.00;0.00;;;25.90;43.50;;;;;;5001980;28;20233;-49
2024/02/16 08:12:40;;;;;;;0.00;0.00;;;25.90;43.50;;;;;;5008443;28;20205;-46
2024/02/16 08:15:12;;;;;;;0.00;0.00;;;25.90;43.50;;;;;;5008965;28;20200;-43
2024/02/16 08:17:43;;;;;;;0.00;0.00;;;25.90;43.50;;;;;;5008852;28;20227;-45
2024/02/16 08:20:14;;;;;;;0.00;0.00;;;25.90;43.50;;;;;;5008517;28;20229;-44
2024/02/16 08:22:45;;;;;;;0.00;0.00;;;25.90;43.60;;;;;;5016906;28;20207;-45
2024/02/16 08:25:15;;;;;;;0.00;0.00;;;25.90;43.60;;;;;;5028335;28;20204;-49
2024/02/16 08:27:49;;;;;;;0.00;0.00;;;25.80;43.60;;;;;;5014123;28;20189;-43
2024/02/16 08:30:20;;;;;;;0.03;0.03;;;25.80;43.60;;;;;;5009768;28;20691;-46
2024/02/16 08:32:50;;;;;;;0.00;0.00;;;25.80;43.60;;;;;;5009054;28;20215;-45
2024/02/16 08:35:21;;;;;;;0.00;0.00;;;25.80;43.60;;;;;;5008169;28;20224;-41
2024/02/16 08:37:52;;;;;;;0.00;0.00;;;25.80;43.60;;;;;;5022286;28;20678;-43
2024/02/16 08:40:23;;;;;;;0.00;0.00;;;25.70;43.60;;;;;;5020544;28;20535;-42
2024/02/16 08:42:56;;;;;;;0.00;0.00;;;25.70;43.60;;;;;;5008805;28;20201;-48
2024/02/16 08:45:27;;;;;;;0.00;0.00;;;25.70;43.60;;;;;;5008163;28;20206;-48
2024/02/16 08:47:57;;;;;;;0.00;0.00;;;25.70;43.60;;;;;;5008599;28;20200;-50
2024/02/16 08:50:28;;;;;;;0.00;0.00;;;25.70;43.60;;;;;;4994297;28;20220;-50
2024/02/16 08:52:58;;;;;;;0.00;0.00;;;25.70;43.60;;;;;;5027682;28;20195;-49
2024/02/16 08:55:29;;;;;;;0.00;0.00;;;25.70;43.60;;;;;;5027388;28;20207;-44
2024/02/16 08:58:02;;;;;;;0.00;0.00;;;25.70;43.60;;;;;;5011941;28;20208;-50
2024/02/16 09:00:32;;;;;;;0.00;0.00;;;25.70;43.60;;;;;;5008099;28;20604;-50
2024/02/16 09:03:03;;;;;;;0.00;0.00;;;25.70;43.60;;;;;;5007494;28;20297;-46
2024/02/16 09:05:34;;;;;;;0.10;0.10;;;25.60;43.50;;;;;;5027042;28;20196;-46
2024/02/16 09:08:06;;;;;;;0.00;0.00;;;25.60;43.40;;;;;;5028226;28;20675;-49
2024/02/16 09:10:36;;;;;;;0.00;0.00;;;25.60;43.40;;;;;;5018808;28;20283;-44
2024/02/16 09:13:09;;;;;;;0.00;0.00;;;25.60;43.50;;;;;;5008166;28;20223;-48
2024/02/16 09:15:40;;;;;;;0.00;0.00;;;25.60;43.40;;;;;;5010173;28;20200;-49
2024/02/16 09:18:10;;;;;;;0.00;0.00;;;25.60;43.40;;;;;;5009630;28;20204;-49
2024/02/16 09:20:42;;;;;;;0.00;0.00;;;25.60;43.40;;;;;;4988277;28;20417;-43
2024/02/16 09:23:13;;;;;;;0.00;0.00;;;25.60;43.40;;;;;;4987757;28;20248;-49
2024/02/16 09:25:45;;;;;;;0.03;0.03;;;25.50;43.40;;;;;;4987032;28;20211;-47
2024/02/16 09:28:18;;;;;;;0.00;0.00;;;25.60;43.50;;;;;;4987585;28;20205;-50
2024/02/16 09:30:49;;;;;;;0.00;0.00;;;25.50;43.50;;;;;;5003997;28;20204;-47
2024/02/16 09:33:20;;;;;;;0.00;0.00;;;25.50;43.50;;;;;;5028242;28;20204;-48
2024/02/16 09:35:51;;;;;;;0.00;0.00;;;25.50;43.50;;;;;;5027167;28;20196;-50
2024/02/16 09:38:22;;;;;;;0.00;0.00;;;25.50;43.60;;;;;;5027733;28;20220;-47
2024/02/16 09:40:54;;;;;;;0.00;0.00;;;25.50;43.50;;;;;;5001639;28;20212;-47
2024/02/16 09:43:33;;;;;;;0.10;0.10;;;25.50;43.60;;;;;;5007296;28;20568;-48
2024/02/16 09:46:03;;;;;;;0.00;0.00;;;25.50;43.50;;;;;;5027559;28;20207;-46
2024/02/16 09:48:34;;;;;;;0.00;0.00;;;25.40;43.40;;;;;;5026999;28;20227;-47
2024/02/16 09:51:05;;;;;;;0.00;0.00;;;25.50;43.50;;;;;;5027069;28;20204;-50
2024/02/16 09:53:36;;;;;;;0.00;0.00;;;25.40;43.40;;;;;;5027238;28;20196;-50
2024/02/16 09:56:10;;;;;;;0.00;0.00;;;25.40;43.40;;;;;;5026482;28;20557;-49
2024/02/16 09:58:43;;;;;;;0.00;0.00;;;25.40;43.40;;;;;;5016869;28;20798;-41
2024/02/16 10:01:22;;;;;;;0.00;0.00;;;25.40;43.50;;;;;;5006267;28;20207;-47
2024/02/16 10:03:53;;;;;;;0.00;0.00;;;25.40;44.00;;;;;;4988282;28;20451;-47
2024/02/16 10:06:24;;;;;;;0.00;0.00;;;25.40;43.40;;;;;;4987697;28;20298;-49
2024/02/16 10:08:56;;;;;;;0.00;0.00;;;25.30;43.30;;;;;;4990048;28;20217;-43
2024/02/16 10:11:30;;;;;;;0.00;0.00;;;25.30;43.40;;;;;;5007486;28;20205;-47
2024/02/16 10:14:04;;;;;;;0.00;0.00;;;25.30;43.40;;;;;;5007953;28;20201;-50
2024/02/16 10:16:35;;;;;;;0.00;0.00;;;25.30;43.40;;;;;;5007031;28;20200;-50
2024/02/16 10:19:10;;;;;;;0.00;0.00;;;25.30;44.00;;;;;;5006503;28;20212;-44
2024/02/16 10:21:41;;;;;;;0.00;0.00;;;25.30;43.40;;;;;;5006390;28;20653;-50
2024/02/16 10:24:14;;;;;;;0.00;0.00;;;25.30;43.40;;;;;;5022267;28;20254;-48
2024/02/16 10:26:44;;;;;;;0.00;0.00;;;25.30;43.40;;;;;;5025723;28;20200;-46
2024/02/16 10:29:21;;;;;;;0.00;0.00;;;25.30;43.40;;;;;;5008142;28;20637;-46
2024/02/16 10:31:52;;;;;;;0.00;0.00;;;25.30;43.40;;;;;;5010212;28;20218;-49
2024/02/16 10:34:25;;;;;;;0.05;0.05;;;25.30;43.40;;;;;;5006591;28;20208;-42
2024/02/16 10:36:57;;;;;;;0.00;0.00;;;25.30;43.40;;;;;;5019207;28;20652;-46
2024/02/16 10:39:28;;;;;;;0.00;0.00;;;25.20;43.30;;;;;;5029476;28;20267;-46
2024/02/16 10:42:02;;;;;;;0.00;0.00;;;25.20;43.40;;;;;;5010540;28;20205;-42
2024/02/16 10:44:51;;;;;;;0.00;0.00;;;25.20;43.30;;;;;;5010105;28;20196;-43
2024/02/16 10:47:25;;;;;;;0.00;0.00;;;25.20;43.40;;;;;;5010266;28;20287;-41
2024/02/16 10:50:04;;;;;;;0.00;0.00;;;25.20;43.30;;;;;;5011406;28;20231;-40
2024/02/16 10:52:41;;;;;;;0.05;0.05;;;25.20;43.40;;;;;;5030616;28;20269;-46
2024/02/16 10:55:15;;;;;;;0.00;0.00;;;25.20;43.30;;;;;;5029342;28;20200;-45
2024/02/16 10:57:49;;;;;;;0.00;0.00;;;25.10;43.30;;;;;;5021553;28;20288;-47
2024/02/16 11:00:29;;;;;;;0.00;0.00;;;25.10;43.30;;;;;;5005271;28;20228;-50
2024/02/16 11:03:06;;;;;;;0.00;0.00;;;25.10;43.30;;;;;;5002749;28;20205;-45
2024/02/16 11:05:45;;;;;;;0.00;0.00;;;25.10;43.30;;;;;;5015311;28;20286;-49
2024/02/16 11:08:29;;;;;;;0.00;0.00;;;25.10;43.30;;;;;;5010250;28;20207;-49
2024/02/16 11:11:04;;;;;;;0.00;0.00;;;25.10;43.40;;;;;;4987362;28;20327;-42
2024/02/16 11:13:39;;;;;;;0.00;0.00;;;25.10;43.30;;;;;;5008857;28;20293;-42
2024/02/16 11:16:21;;;;;;;0.00;0.00;;;25.10;43.40;;;;;;5011454;28;20192;-49
2024/02/16 11:18:55;;;;;;;0.00;0.00;;;25.00;43.30;;;;;;5027689;28;20388;-44
2024/02/16 11:21:26;;;;;;;0.00;0.00;;;25.00;43.30;;;;;;5018249;28;20704;-49
2024/02/16 11:24:11;;;;;;;0.00;0.00;;;25.00;43.30;;;;;;5012426;28;20658;-53
2024/02/16 11:26:56;;;;;;;0.00;0.00;;;25.00;43.30;;;;;;5011605;28;20546;-45
2024/02/16 11:29:28;;;;;;;0.00;0.00;;;25.00;43.30;;;;;;5003232;28;20239;-44
2024/02/16 11:32:08;;;;;;;0.00;0.00;;;25.00;43.30;;;;;;5003158;28;20284;-50
2024/02/16 11:34:41;;;;;;;0.00;0.00;;;25.00;43.30;;;;;;5003335;28;20267;-49
2024/02/16 11:37:38;;;;;;;0.00;0.00;;;25.00;43.30;;;;;;5000388;28;20248;-49
2024/02/16 11:40:17;;;;;;;0.00;0.00;;;25.00;43.40;;;;;;5001665;28;20556;-47
2024/02/16 11:42:55;;;;;;;0.00;0.00;;;25.00;43.30;;;;;;5000902;28;20193;-45
2024/02/16 11:45:28;;;;;;;0.10;0.10;;;24.90;43.30;;;;;;5000183;28;20189;-47
2024/02/16 11:48:12;;;;;;;0.00;0.00;;;24.90;43.30;;;;;;5002571;28;20189;-49
2024/02/16 11:50:49;;;;;;;0.00;0.00;;;24.90;43.40;;;;;;5000754;28;20240;-49
2024/02/16 11:53:28;;;;;;;0.00;0.00;;;24.90;43.40;;;;;;5002004;28;20199;-51
2024/02/16 11:56:00;;;;;;;0.00;0.00;;;24.90;43.40;;;;;;5000831;28;20204;-49
2024/02/16 11:58:32;;;;;;;0.03;0.03;;;24.90;43.50;;;;;;5002809;28;20220;-52
2024/02/16 12:01:16;;;;;;;0.00;0.00;;;24.80;43.50;;;;;;5001935;28;20233;-51
2024/02/16 12:03:56;;;;;;;0.00;0.00;;;24.90;43.60;;;;;;5002820;28;20561;-50
2024/02/16 12:06:28;;;;;;;0.00;0.00;;;24.90;43.60;;;;;;5002596;28;20254;-48
2024/02/16 12:09:00;;;;;;;0.00;0.00;;;24.90;43.70;;;;;;5001482;28;20214;-50
2024/02/16 12:11:35;;;;;;;0.00;0.00;;;24.80;43.60;;;;;;4999663;28;20225;-50
2024/02/16 12:14:06;;;;;;;0.00;0.00;;;24.80;43.70;;;;;;5001111;28;20200;-49
2024/02/16 12:16:44;;;;;;;0.00;0.00;;;24.80;43.70;;;;;;5001895;28;20236;-52
2024/02/16 12:19:27;;;;;;;0.00;0.00;;;24.80;43.70;;;;;;5001230;28;20213;-50
2024/02/16 12:22:02;;;;;;;0.00;0.00;;;24.80;43.70;;;;;;5001506;28;20257;-50
2024/02/16 12:24:38;;;;;;;0.00;0.00;;;24.80;43.70;;;;;;5000983;28;20642;-49
2024/02/16 12:27:10;;;;;;;0.00;0.00;;;24.80;43.70;;;;;;5000605;28;20185;-50
2024/02/16 12:29:46;;;;;;;0.00;0.00;;;24.80;43.70;;;;;;5003733;28;20662;-50
2024/02/16 12:32:24;;;;;;;0.00;0.00;;;24.80;43.80;;;;;;5012130;28;20200;-51
2024/02/16 12:34:58;;;;;;;0.00;0.00;;;24.80;43.80;;;;;;5012944;28;20239;-52
2024/02/16 12:37:31;;;;;;;0.00;0.00;;;24.70;43.80;;;;;;5012162;28;20203;-50
2024/02/16 12:40:03;;;;;;;0.00;0.00;;;24.70;43.80;;;;;;5011731;28;20221;-52
2024/02/16 12:42:33;;;;;;;0.00;0.00;;;24.70;43.80;;;;;;5011920;28;20255;-46
2024/02/16 12:45:12;;;;;;;0.00;0.00;;;24.70;43.90;;;;;;5011946;28;20724;-50
2024/02/16 12:47:45;;;;;;;0.00;0.00;;;24.70;43.90;;;;;;5010680;28;20192;-50
2024/02/16 12:50:27;;;;;;;0.00;0.00;;;24.70;44.00;;;;;;5011494;28;20263;-49
2024/02/16 12:53:00;;;;;;;0.00;0.00;;;24.70;44.00;;;;;;5011922;28;20207;-47
2024/02/16 12:55:39;;;;;;;0.00;0.00;;;24.70;44.00;;;;;;5010549;28;20280;-50
2024/02/16 12:58:21;;;;;;;0.00;0.00;;;24.70;44.10;;;;;;5010374;28;20192;-50
2024/02/16 13:00:54;;;;;;;0.00;0.00;;;24.70;44.10;;;;;;5011089;28;20287;-49
2024/02/16 13:03:27;;;;;;;0.08;0.08;;;24.70;44.10;;;;;;5008269;28;20655;-47
2024/02/16 13:06:07;;;;;;;0.00;0.00;;;24.70;44.10;;;;;;5011156;28;20211;-51
2024/02/16 13:08:43;;;;;;;0.00;0.00;;;24.60;44.10;;;;;;5010972;28;20243;-51
2024/02/16 13:11:14;;;;;;;0.00;0.00;;;24.60;44.00;;;;;;5009835;28;20251;-52
2024/02/16 13:13:44;;;;;;;0.00;0.00;;;24.60;44.00;;;;;;5010733;28;20279;-52